Sheridan, WY

4:24 AM MDT on September 17, 2014 (GMT -0600)
North Airport Area | Change Station
CLOSE
Current Station
Personal Weather Station
Location: Sheridan, WY
Elevation: 3917 ft
Nearby Weather Stations

Elev 3917 ft 44.78 °N, 106.97 °W | Updated 13 minutes ago

Clear
Clear
55.9 °F
Feels Like 55.9 °F
N
1.1
Wind Variable Wind from SSE

Today
High -- | Low -- °F
--% Chance of Precip.
Yesterday
High -- | Low -- °F
Precip. -- in
6:49 AM 7:14 PM
Last Quarter, 37% visible
Pressure 29.87 in
Visibility 10.0 miles
Clouds Clear
Dew Point 46 °F
Humidity 69%
Rainfall 0.00 in
Snow Depth 0 in , 0 in , 0 in
UV 0 out of 12
Pollen 5.90 out of 12
Air Quality Not available.
Flu Activity Not available.
METAR KSHR 170953Z AUTO 26005KT 10SM CLR 15/07 A2997 RMK AO2 SLP113 T01500072

More Conditions Fewer Conditions

Pressure 29.87 in
Visibility 10.0 miles
Clouds Clear
Dew Point 46 °F
Humidity 69%
Rainfall 0.00 in
Snow Depth 0 in , 0 in , 0 in
UV 0 out of 12
Pollen 5.90 out of 12
Air Quality Not available.
Flu Activity Not available.
METAR KSHR 170953Z AUTO 26005KT 10SM CLR 15/07 A2997 RMK AO2 SLP113 T01500072

More Conditions Fewer Conditions

10-Day Weather Forecast

Almanac

Astronomy

Sep. 17, 2014 Rise Set
Actual Time 6:49 AM MDT 7:14 PM MDT
Civil Twilight 6:19 AM MDT 7:43 PM MDT
Nautical Twilight 5:45 AM MDT 8:18 PM MDT
Astronomical Twilight 5:09 AM MDT 8:54 PM MDT
Moon 12:40 AM MDT 3:36 PM MDT
Length of Visible Light 13h 24m
Length of Day
12h 25m
Tomorrow will be 3m 5s shorter.
Last Quarter, 37% of the Moon is Illuminated
Today
Last Quarter
Sep 24
New
Oct 1
First Quarter
Oct 8
Full
Oct 15
Last Quarter

Today's Extremes

State Highs State Lows

Community

WunderPhotos

Upload Photos

1,753,993 photos uploaded!

Nearby

Snow Depth

Station Depth Elevation
Phillips Bench 0 in 8200 ft
Gros Ventre Summit 1 in 8750 ft
Gunsight Pass 1 in 9820 ft
Willow Creek 0 in 8450 ft
East Rim Divide 0 in 7930 ft

Earthquake Activity

City Distance Mag. Time & Date
No recent earthquake activity has been reported nearby.
Minimum magnitude displayed is 2.5.

Coastal Water Temperatures

Place Temperature
No Stations Reporting

Nearby Weather Stations